Time;durP1;ratioP1;P1;durP2;ratioP2;P2;SDS_P1;SDS_P2;PMS_P1;PMS_P2;Temp;Humidity;BMP_temperature;BMP_pressure;BME280_temperature;BME280_humidity;BME280_pressure;Samples;Min_cycle;Max_cycle;Signal;HPM_P1;HPM_P2
2024/03/22 00:01:13;;;;;;;2.20;1.73;;;;;;;;;;4996274;28;20113;-67
2024/03/22 00:03:38;;;;;;;5.73;1.77;;;;;;;;;;4996203;28;20385;-66
2024/03/22 00:06:04;;;;;;;1.07;0.97;;;;;;;;;;4996169;28;20022;-66
2024/03/22 00:08:29;;;;;;;1.10;1.00;;;;;;;;;;4996155;28;20053;-67
2024/03/22 00:10:54;;;;;;;1.17;0.80;;;;;;;;;;4996431;28;20093;-66
2024/03/22 00:13:19;;;;;;;1.27;1.13;;;;;;;;;;4995998;28;20045;-66
2024/03/22 00:15:45;;;;;;;1.47;0.90;;;;;;;;;;4995992;28;20022;-67
2024/03/22 00:18:10;;;;;;;2.20;0.77;;;;;;;;;;4996281;28;20102;-66
2024/03/22 00:20:35;;;;;;;4.32;1.38;;;;;;;;;;4996005;28;20266;-66
2024/03/22 00:23:01;;;;;;;0.30;0.30;;;;;;;;;;4996011;28;20022;-67
2024/03/22 00:25:26;;;;;;;1.17;0.97;;;;;;;;;;4995876;28;20042;-66
2024/03/22 00:27:51;;;;;;;2.07;1.73;;;;;;;;;;4995710;28;20292;-66
2024/03/22 00:30:16;;;;;;;0.97;0.90;;;;;;;;;;4995785;28;20303;-66
2024/03/22 00:32:44;;;;;;;1.40;1.30;;;;;;;;;;4995818;28;20262;-67
2024/03/22 00:35:09;;;;;;;1.75;1.33;;;;;;;;;;4995725;28;20430;-66
2024/03/22 00:37:34;;;;;;;0.80;0.80;;;;;;;;;;4995790;28;20030;-66
2024/03/22 00:40:00;;;;;;;4.23;1.23;;;;;;;;;;4995634;28;20026;-66
2024/03/22 00:42:25;;;;;;;1.17;1.03;;;;;;;;;;4995777;28;20470;-66
2024/03/22 00:44:50;;;;;;;0.60;0.60;;;;;;;;;;4995543;28;20061;-66
2024/03/22 00:47:15;;;;;;;2.27;1.20;;;;;;;;;;4995433;28;20072;-66
2024/03/22 00:49:40;;;;;;;0.77;0.67;;;;;;;;;;5004998;28;20346;-66
2024/03/22 00:52:06;;;;;;;1.63;1.10;;;;;;;;;;5014543;28;20388;-66
2024/03/22 00:54:31;;;;;;;1.40;1.30;;;;;;;;;;5014201;28;20680;-66
2024/03/22 00:56:56;;;;;;;0.83;0.80;;;;;;;;;;4995209;28;20699;-67
2024/03/22 00:59:21;;;;;;;0.30;0.30;;;;;;;;;;4995303;28;20687;-66
2024/03/22 01:01:47;;;;;;;1.05;0.90;;;;;;;;;;4995336;28;20338;-66
2024/03/22 01:04:12;;;;;;;0.82;0.82;;;;;;;;;;4995059;28;20429;-67
2024/03/22 01:06:37;;;;;;;0.97;0.93;;;;;;;;;;4995164;28;20069;-66
2024/03/22 01:09:09;;;;;;;0.40;0.40;;;;;;;;;;5007035;28;20041;-66
2024/03/22 01:11:35;;;;;;;0.52;0.52;;;;;;;;;;5026724;28;20484;-67
2024/03/22 01:14:00;;;;;;;1.00;0.87;;;;;;;;;;5033830;28;20026;-66
2024/03/22 01:16:25;;;;;;;0.30;0.30;;;;;;;;;;5033619;28;20266;-66
2024/03/22 01:18:50;;;;;;;0.20;0.20;;;;;;;;;;5033664;28;20259;-66
2024/03/22 01:21:15;;;;;;;5.10;1.10;;;;;;;;;;5033338;28;20255;-66
2024/03/22 01:23:41;;;;;;;0.53;0.53;;;;;;;;;;5033684;28;20032;-66
2024/03/22 01:26:06;;;;;;;0.70;0.70;;;;;;;;;;5033241;28;20273;-66
2024/03/22 01:28:31;;;;;;;0.60;0.60;;;;;;;;;;5033471;28;20279;-66
2024/03/22 01:30:56;;;;;;;0.20;0.20;;;;;;;;;;5033497;28;20366;-67
2024/03/22 01:33:21;;;;;;;0.47;0.47;;;;;;;;;;5033497;28;20082;-63
2024/03/22 01:35:47;;;;;;;0.63;0.47;;;;;;;;;;5033370;28;20273;-63
2024/03/22 01:38:12;;;;;;;0.20;0.20;;;;;;;;;;5033071;28;20037;-63
2024/03/22 01:40:37;;;;;;;0.13;0.13;;;;;;;;;;5033345;28;20056;-63
2024/03/22 01:43:02;;;;;;;1.60;1.00;;;;;;;;;;5033344;28;20429;-63
2024/03/22 01:45:31;;;;;;;0.68;0.68;;;;;;;;;;5032906;28;20034;-63
2024/03/22 01:47:56;;;;;;;0.50;0.32;;;;;;;;;;5033047;28;20025;-63
2024/03/22 01:50:21;;;;;;;2.00;1.90;;;;;;;;;;5033363;28;20096;-63
2024/03/22 01:52:47;;;;;;;0.30;0.30;;;;;;;;;;5032835;28;20033;-63
2024/03/22 01:55:12;;;;;;;0.30;0.30;;;;;;;;;;5033053;28;20262;-63
2024/03/22 01:57:38;;;;;;;0.90;0.85;;;;;;;;;;5025215;28;20025;-63
2024/03/22 02:00:03;;;;;;;1.20;1.02;;;;;;;;;;5013363;28;20108;-63
2024/03/22 02:02:28;;;;;;;1.52;1.38;;;;;;;;;;5013642;28;20033;-63
2024/03/22 02:04:54;;;;;;;2.00;1.13;;;;;;;;;;5013399;28;20484;-63
2024/03/22 02:07:19;;;;;;;0.32;0.32;;;;;;;;;;5032896;28;20056;-63
2024/03/22 02:09:44;;;;;;;0.77;0.57;;;;;;;;;;5013528;28;20065;-62
2024/03/22 02:12:10;;;;;;;0.40;0.40;;;;;;;;;;5013043;28;20026;-63
2024/03/22 02:14:35;;;;;;;0.65;0.63;;;;;;;;;;5013164;28;20374;-63
2024/03/22 02:17:00;;;;;;;0.60;0.60;;;;;;;;;;5012978;28;20397;-63
2024/03/22 02:19:26;;;;;;;0.83;0.83;;;;;;;;;;5012939;28;20033;-63
2024/03/22 02:21:51;;;;;;;1.83;1.03;;;;;;;;;;5012983;28;20694;-63
2024/03/22 02:24:16;;;;;;;0.00;0.00;;;;;;;;;;5013021;28;20267;-63
2024/03/22 02:26:41;;;;;;;1.83;0.80;;;;;;;;;;5012545;28;20057;-63
2024/03/22 02:29:06;;;;;;;0.63;0.40;;;;;;;;;;5012942;28;20105;-63
2024/03/22 02:31:32;;;;;;;0.30;0.30;;;;;;;;;;5009018;28;20262;-63
2024/03/22 02:33:57;;;;;;;0.30;0.30;;;;;;;;;;5000529;28;20033;-63
2024/03/22 02:36:23;;;;;;;0.30;0.30;;;;;;;;;;5000584;28;20145;-63
2024/03/22 02:38:48;;;;;;;0.63;0.60;;;;;;;;;;5000540;28;20026;-63
2024/03/22 02:41:13;;;;;;;0.20;0.20;;;;;;;;;;5000243;28;20343;-64
2024/03/22 02:43:38;;;;;;;0.10;0.10;;;;;;;;;;5000403;28;20022;-63
2024/03/22 02:46:03;;;;;;;0.33;0.33;;;;;;;;;;5000158;28;20322;-63
2024/03/22 02:48:29;;;;;;;1.17;0.68;;;;;;;;;;5000028;28;20327;-63
2024/03/22 02:50:57;;;;;;;0.73;0.73;;;;;;;;;;5001261;28;20042;-63
2024/03/22 02:53:23;;;;;;;0.63;0.63;;;;;;;;;;5008901;28;20263;-63
2024/03/22 02:55:48;;;;;;;0.10;0.10;;;;;;;;;;5019175;28;20355;-63
2024/03/22 02:58:13;;;;;;;0.88;0.80;;;;;;;;;;5004638;28;20025;-63
2024/03/22 03:00:39;;;;;;;0.10;0.10;;;;;;;;;;5017103;28;20136;-63
2024/03/22 03:03:04;;;;;;;0.28;0.28;;;;;;;;;;5016749;28;20718;-63
2024/03/22 03:05:30;;;;;;;0.10;0.10;;;;;;;;;;5000941;28;20022;-63
2024/03/22 03:07:55;;;;;;;0.23;0.23;;;;;;;;;;5002290;28;20069;-63
2024/03/22 03:10:20;;;;;;;1.50;0.70;;;;;;;;;;5008750;28;20282;-63
2024/03/22 03:12:45;;;;;;;1.05;0.43;;;;;;;;;;5004602;28;20029;-63
2024/03/22 03:15:10;;;;;;;0.10;0.10;;;;;;;;;;5000051;28;20378;-63
2024/03/22 03:17:36;;;;;;;0.10;0.10;;;;;;;;;;5001526;28;20023;-63
2024/03/22 03:20:01;;;;;;;1.10;1.00;;;;;;;;;;5018940;28;20367;-63
2024/03/22 03:22:26;;;;;;;0.07;0.07;;;;;;;;;;5018908;28;20034;-63
2024/03/22 03:24:51;;;;;;;0.60;0.60;;;;;;;;;;5017271;28;20345;-63
2024/03/22 03:27:17;;;;;;;0.10;0.10;;;;;;;;;;5018907;28;20025;-63
2024/03/22 03:29:42;;;;;;;0.10;0.10;;;;;;;;;;5013318;28;20382;-63
2024/03/22 03:32:07;;;;;;;0.32;0.32;;;;;;;;;;5016033;28;20018;-63
2024/03/22 03:34:32;;;;;;;0.10;0.10;;;;;;;;;;5015688;28;20026;-63
2024/03/22 03:37:00;;;;;;;0.73;0.47;;;;;;;;;;5005845;28;20270;-63
2024/03/22 03:39:25;;;;;;;0.65;0.55;;;;;;;;;;5009541;28;20056;-64
2024/03/22 03:41:51;;;;;;;0.30;0.30;;;;;;;;;;4999736;28;20109;-63
2024/03/22 03:44:16;;;;;;;0.00;0.00;;;;;;;;;;5011180;28;20021;-63
2024/03/22 03:46:41;;;;;;;0.10;0.10;;;;;;;;;;5015273;28;20041;-63
2024/03/22 03:49:06;;;;;;;0.33;0.33;;;;;;;;;;5010840;28;20046;-63
2024/03/22 03:51:31;;;;;;;0.10;0.10;;;;;;;;;;4996497;28;20374;-63
2024/03/22 03:53:57;;;;;;;0.20;0.20;;;;;;;;;;4996619;28;20032;-66
2024/03/22 03:56:22;;;;;;;0.63;0.40;;;;;;;;;;5009590;28;20022;-66
2024/03/22 03:58:47;;;;;;;0.40;0.40;;;;;;;;;;5015310;28;20026;-67
2024/03/22 04:01:12;;;;;;;0.20;0.20;;;;;;;;;;4999107;28;20631;-66
2024/03/22 04:03:37;;;;;;;0.10;0.10;;;;;;;;;;5015587;28;20026;-66
2024/03/22 04:06:03;;;;;;;0.10;0.10;;;;;;;;;;5006687;28;20263;-66
2024/03/22 04:08:28;;;;;;;0.00;0.00;;;;;;;;;;5005191;28;20050;-66
2024/03/22 04:10:56;;;;;;;0.35;0.35;;;;;;;;;;4996228;28;20252;-67
2024/03/22 04:13:21;;;;;;;0.50;0.50;;;;;;;;;;4996168;28;20014;-67
2024/03/22 04:15:47;;;;;;;0.43;0.35;;;;;;;;;;5014374;28;20539;-66
2024/03/22 04:18:12;;;;;;;0.43;0.43;;;;;;;;;;5015161;28;20037;-66
2024/03/22 04:20:37;;;;;;;0.10;0.10;;;;;;;;;;5006627;28;20030;-66
2024/03/22 04:23:02;;;;;;;0.10;0.10;;;;;;;;;;4996271;28;20370;-66
2024/03/22 04:25:27;;;;;;;0.20;0.20;;;;;;;;;;4995936;28;20050;-66
2024/03/22 04:27:53;;;;;;;0.50;0.50;;;;;;;;;;5012418;28;20132;-66
2024/03/22 04:30:18;;;;;;;1.57;0.73;;;;;;;;;;5014795;28;20478;-66
2024/03/22 04:32:45;;;;;;;0.10;0.10;;;;;;;;;;5013368;28;20036;-66
2024/03/22 04:35:10;;;;;;;0.45;0.45;;;;;;;;;;4996310;28;20030;-66
2024/03/22 04:37:36;;;;;;;0.20;0.20;;;;;;;;;;4995733;28;20414;-67
2024/03/22 04:40:01;;;;;;;0.10;0.10;;;;;;;;;;5011162;28;20282;-66
2024/03/22 04:42:26;;;;;;;0.10;0.10;;;;;;;;;;5014838;28;20030;-66
2024/03/22 04:44:51;;;;;;;0.30;0.30;;;;;;;;;;5008983;28;20262;-67
2024/03/22 04:47:16;;;;;;;0.17;0.17;;;;;;;;;;4995606;28;20763;-66
2024/03/22 04:49:42;;;;;;;0.53;0.53;;;;;;;;;;4998605;28;20022;-66
2024/03/22 04:52:07;;;;;;;0.60;0.50;;;;;;;;;;5000164;28;20014;-66
2024/03/22 04:54:32;;;;;;;0.27;0.27;;;;;;;;;;4995234;28;20022;-66
2024/03/22 04:56:57;;;;;;;0.13;0.13;;;;;;;;;;4997379;28;20040;-66
2024/03/22 04:59:22;;;;;;;0.73;0.73;;;;;;;;;;5014325;28;20034;-66
2024/03/22 05:01:47;;;;;;;0.10;0.10;;;;;;;;;;5014023;28;20107;-66
2024/03/22 05:04:13;;;;;;;0.53;0.53;;;;;;;;;;5003738;28;20478;-63
2024/03/22 05:06:38;;;;;;;0.10;0.10;;;;;;;;;;4977597;28;20022;-63
2024/03/22 05:09:03;;;;;;;0.10;0.10;;;;;;;;;;4995897;28;20046;-63
2024/03/22 05:11:29;;;;;;;0.30;0.30;;;;;;;;;;4995128;28;20020;-63
2024/03/22 05:13:54;;;;;;;0.55;0.35;;;;;;;;;;5002831;28;20294;-63
2024/03/22 05:16:19;;;;;;;0.77;0.40;;;;;;;;;;5006396;28;20026;-63
2024/03/22 05:18:44;;;;;;;0.10;0.10;;;;;;;;;;5009489;28;20053;-63
2024/03/22 05:21:10;;;;;;;0.50;0.50;;;;;;;;;;5008825;28;20018;-63
2024/03/22 05:23:35;;;;;;;2.63;1.27;;;;;;;;;;4997466;28;20066;-63
2024/03/22 05:26:00;;;;;;;0.50;0.40;;;;;;;;;;5007792;28;20015;-63
2024/03/22 05:28:25;;;;;;;0.10;0.10;;;;;;;;;;5002215;28;20397;-63
2024/03/22 05:30:51;;;;;;;0.88;0.68;;;;;;;;;;4995145;28;20025;-63
2024/03/22 05:33:16;;;;;;;0.37;0.37;;;;;;;;;;4994664;28;20104;-63
2024/03/22 05:35:41;;;;;;;0.37;0.37;;;;;;;;;;5011288;28;20022;-63
2024/03/22 05:38:06;;;;;;;0.63;0.30;;;;;;;;;;5001761;28;20032;-66
2024/03/22 05:40:32;;;;;;;0.03;0.03;;;;;;;;;;5001111;28;20026;-67
2024/03/22 05:42:57;;;;;;;0.00;0.00;;;;;;;;;;5011564;28;20733;-67
2024/03/22 05:45:22;;;;;;;0.17;0.17;;;;;;;;;;4994320;28;20050;-67
2024/03/22 05:47:47;;;;;;;0.10;0.10;;;;;;;;;;5009650;28;20029;-67
2024/03/22 05:50:14;;;;;;;0.13;0.13;;;;;;;;;;5004989;28;20071;-67
2024/03/22 05:52:39;;;;;;;1.17;0.30;;;;;;;;;;5008593;28;20026;-67
2024/03/22 05:55:05;;;;;;;0.83;0.57;;;;;;;;;;4991822;28;20014;-67
2024/03/22 05:57:30;;;;;;;0.90;0.82;;;;;;;;;;4990812;28;20268;-67
2024/03/22 05:59:55;;;;;;;0.50;0.50;;;;;;;;;;4991029;28;20079;-67
2024/03/22 06:02:20;;;;;;;0.32;0.32;;;;;;;;;;4990681;28;20394;-67
2024/03/22 06:04:47;;;;;;;1.13;0.80;;;;;;;;;;4988963;28;20040;-67
2024/03/22 06:07:14;;;;;;;0.40;0.40;;;;;;;;;;4992613;28;20838;-67
2024/03/22 06:09:48;;;;;;;0.55;0.55;;;;;;;;;;4991362;28;20065;-67
2024/03/22 06:12:14;;;;;;;0.00;0.00;;;;;;;;;;4988214;28;20026;-66
2024/03/22 06:14:40;;;;;;;0.10;0.10;;;;;;;;;;4988238;28;20030;-66
2024/03/22 06:17:05;;;;;;;3.75;1.13;;;;;;;;;;4989402;28;20393;-66
2024/03/22 06:19:31;;;;;;;0.10;0.10;;;;;;;;;;4992643;28;20352;-66
2024/03/22 06:21:56;;;;;;;0.30;0.30;;;;;;;;;;4990047;28;20252;-66
2024/03/22 06:24:21;;;;;;;0.30;0.30;;;;;;;;;;4991193;28;20338;-66
2024/03/22 06:26:46;;;;;;;0.33;0.33;;;;;;;;;;4989198;28;20015;-66
2024/03/22 06:29:12;;;;;;;0.10;0.10;;;;;;;;;;4991887;28;20033;-66
2024/03/22 06:31:37;;;;;;;0.80;0.80;;;;;;;;;;4993931;28;20019;-66
2024/03/22 06:34:03;;;;;;;0.30;0.30;;;;;;;;;;4994826;28;20026;-73
2024/03/22 06:36:29;;;;;;;0.20;0.20;;;;;;;;;;4990241;28;20051;-73
2024/03/22 06:38:54;;;;;;;0.20;0.20;;;;;;;;;;4994153;28;20525;-66
2024/03/22 06:41:19;;;;;;;0.20;0.20;;;;;;;;;;4989861;28;20026;-67
2024/03/22 06:43:45;;;;;;;0.63;0.50;;;;;;;;;;4991737;28;20251;-66
2024/03/22 06:46:10;;;;;;;0.30;0.30;;;;;;;;;;4991709;28;20030;-73
2024/03/22 06:48:35;;;;;;;0.33;0.33;;;;;;;;;;4992819;28;20283;-73
2024/03/22 06:51:00;;;;;;;0.10;0.10;;;;;;;;;;4991542;28;20014;-67
2024/03/22 06:53:26;;;;;;;0.23;0.23;;;;;;;;;;5006843;28;20317;-66
2024/03/22 06:55:52;;;;;;;0.35;0.35;;;;;;;;;;5012345;28;20026;-67
2024/03/22 06:58:17;;;;;;;0.50;0.50;;;;;;;;;;4993801;28;20482;-66
2024/03/22 07:00:42;;;;;;;0.30;0.30;;;;;;;;;;5003574;28;20044;-66
2024/03/22 07:03:07;;;;;;;1.00;0.77;;;;;;;;;;5001577;28;20037;-66
2024/03/22 07:05:32;;;;;;;0.47;0.47;;;;;;;;;;5008943;28;20363;-66
2024/03/22 07:07:57;;;;;;;0.23;0.23;;;;;;;;;;4993795;28;20157;-66
2024/03/22 07:10:27;;;;;;;0.85;0.75;;;;;;;;;;5009124;28;20038;-66
2024/03/22 07:12:52;;;;;;;0.50;0.50;;;;;;;;;;5012609;28;20010;-66
2024/03/22 07:15:18;;;;;;;0.43;0.43;;;;;;;;;;5008526;28;20474;-66
2024/03/22 07:17:43;;;;;;;0.20;0.20;;;;;;;;;;4994442;28;20389;-66
2024/03/22 07:20:08;;;;;;;0.10;0.10;;;;;;;;;;5015835;28;20025;-66
2024/03/22 07:22:33;;;;;;;0.10;0.10;;;;;;;;;;5001652;28;20026;-66
2024/03/22 07:24:59;;;;;;;0.20;0.20;;;;;;;;;;5006980;28;20022;-66
2024/03/22 07:27:29;;;;;;;0.10;0.10;;;;;;;;;;5010809;28;20031;-66
2024/03/22 07:30:01;;;;;;;0.40;0.40;;;;;;;;;;4997849;28;20085;-66
2024/03/22 07:32:27;;;;;;;0.28;0.22;;;;;;;;;;5014430;28;20022;-66
2024/03/22 07:34:52;;;;;;;0.53;0.43;;;;;;;;;;4997036;28;20025;-66
2024/03/22 07:37:17;;;;;;;1.10;1.00;;;;;;;;;;5004639;28;20037;-66
2024/03/22 07:39:42;;;;;;;1.27;0.93;;;;;;;;;;4996224;28;20747;-66
2024/03/22 07:42:07;;;;;;;0.53;0.53;;;;;;;;;;4997546;28;20054;-67
2024/03/22 07:44:33;;;;;;;0.43;0.43;;;;;;;;;;5012532;28;20105;-66
2024/03/22 07:46:58;;;;;;;0.70;0.47;;;;;;;;;;4996660;28;20076;-66
2024/03/22 07:49:23;;;;;;;1.27;0.70;;;;;;;;;;4997575;28;20137;-66
2024/03/22 07:51:48;;;;;;;3.67;1.93;;;;;;;;;;5006738;28;20252;-66
2024/03/22 07:54:13;;;;;;;0.30;0.30;;;;;;;;;;5002881;28;20030;-66
2024/03/22 07:56:39;;;;;;;0.87;0.60;;;;;;;;;;5012053;28;20092;-66
2024/03/22 07:59:04;;;;;;;0.77;0.60;;;;;;;;;;4996963;28;20101;-66
2024/03/22 08:01:30;;;;;;;0.70;0.70;;;;;;;;;;5001831;28;20021;-66
2024/03/22 08:03:55;;;;;;;0.20;0.20;;;;;;;;;;5006706;28;20485;-66
2024/03/22 08:06:20;;;;;;;1.50;1.00;;;;;;;;;;4996228;28;20032;-66
2024/03/22 08:08:45;;;;;;;0.77;0.67;;;;;;;;;;5010724;28;20038;-66
2024/03/22 08:11:10;;;;;;;0.32;0.32;;;;;;;;;;4998154;28;20019;-66
2024/03/22 08:13:36;;;;;;;0.37;0.37;;;;;;;;;;4999529;28;20018;-66
2024/03/22 08:16:01;;;;;;;0.47;0.47;;;;;;;;;;5006691;28;20258;-66
2024/03/22 08:18:26;;;;;;;0.27;0.27;;;;;;;;;;5014856;28;20086;-66
2024/03/22 08:20:51;;;;;;;0.45;0.45;;;;;;;;;;5002945;28;20296;-66
2024/03/22 08:23:20;;;;;;;0.80;0.77;;;;;;;;;;5003474;28;20097;-66
2024/03/22 08:25:45;;;;;;;0.77;0.57;;;;;;;;;;4998639;28;20022;-66
2024/03/22 08:28:10;;;;;;;2.73;1.27;;;;;;;;;;5009724;28;20069;-66
2024/03/22 08:30:37;;;;;;;0.60;0.60;;;;;;;;;;4995262;28;20038;-67
2024/03/22 08:33:03;;;;;;;0.35;0.35;;;;;;;;;;5013182;28;20487;-66
2024/03/22 08:35:29;;;;;;;1.88;0.85;;;;;;;;;;5000432;28;20501;-66
2024/03/22 08:37:54;;;;;;;0.47;0.47;;;;;;;;;;4998111;28;20031;-66
2024/03/22 08:40:19;;;;;;;1.60;1.13;;;;;;;;;;5014711;28;20491;-66
2024/03/22 08:42:44;;;;;;;0.93;0.70;;;;;;;;;;5013345;28;20686;-66
2024/03/22 08:45:09;;;;;;;1.07;0.80;;;;;;;;;;5006174;28;20468;-66
2024/03/22 08:47:35;;;;;;;0.40;0.38;;;;;;;;;;5011348;28;20101;-66
2024/03/22 08:50:08;;;;;;;0.60;0.60;;;;;;;;;;5004488;28;20069;-66
2024/03/22 08:52:35;;;;;;;0.40;0.40;;;;;;;;;;5003228;28;20057;-66
2024/03/22 08:55:00;;;;;;;1.15;1.00;;;;;;;;;;4995752;28;20022;-66
2024/03/22 08:57:25;;;;;;;0.83;0.83;;;;;;;;;;4996688;28;20470;-66
2024/03/22 08:59:51;;;;;;;0.87;0.77;;;;;;;;;;5005808;28;20255;-66
2024/03/22 09:02:16;;;;;;;1.50;1.40;;;;;;;;;;5014290;28;20021;-66
2024/03/22 09:04:41;;;;;;;1.55;1.45;;;;;;;;;;4996706;28;20720;-66
2024/03/22 09:07:07;;;;;;;1.30;1.20;;;;;;;;;;5007807;28;20496;-66
2024/03/22 09:09:38;;;;;;;0.77;0.77;;;;;;;;;;4998117;28;20047;-66
2024/03/22 09:12:03;;;;;;;1.15;1.05;;;;;;;;;;4996163;28;20061;-66
2024/03/22 09:14:29;;;;;;;1.20;1.10;;;;;;;;;;4995005;28;20062;-66
2024/03/22 09:16:54;;;;;;;2.63;1.40;;;;;;;;;;5010328;28;20030;-66
2024/03/22 09:19:19;;;;;;;1.03;0.80;;;;;;;;;;4987244;28;20018;-66
2024/03/22 09:21:44;;;;;;;1.73;1.63;;;;;;;;;;4994822;28;20374;-66
2024/03/22 09:24:09;;;;;;;2.27;2.07;;;;;;;;;;4995280;28;20042;-66
2024/03/22 09:26:35;;;;;;;2.10;1.53;;;;;;;;;;4996424;28;20032;-67
2024/03/22 09:29:00;;;;;;;1.57;1.23;;;;;;;;;;5007544;28;20366;-66
2024/03/22 09:31:25;;;;;;;0.73;0.70;;;;;;;;;;5005768;28;20105;-66
2024/03/22 09:33:51;;;;;;;1.30;1.20;;;;;;;;;;5013944;28;20109;-66
2024/03/22 09:36:16;;;;;;;0.30;0.30;;;;;;;;;;4995990;28;20361;-66
2024/03/22 09:38:41;;;;;;;1.40;1.27;;;;;;;;;;5004376;28;20084;-66
2024/03/22 09:41:06;;;;;;;2.13;1.50;;;;;;;;;;5003885;28;20291;-66
2024/03/22 09:43:33;;;;;;;1.20;1.10;;;;;;;;;;5013639;28;20030;-66
2024/03/22 09:45:58;;;;;;;0.82;0.82;;;;;;;;;;5013235;28;20029;-67
2024/03/22 09:48:23;;;;;;;0.77;0.77;;;;;;;;;;5013429;28;20037;-67
2024/03/22 09:50:49;;;;;;;1.40;1.30;;;;;;;;;;5006154;28;20054;-66
2024/03/22 09:53:21;;;;;;;1.25;1.05;;;;;;;;;;5011160;28;20076;-66
2024/03/22 09:55:47;;;;;;;1.73;1.02;;;;;;;;;;4989314;28;20038;-67
2024/03/22 09:58:12;;;;;;;0.93;0.90;;;;;;;;;;4994268;28;20080;-67
2024/03/22 10:00:37;;;;;;;1.37;1.27;;;;;;;;;;5003071;28;20210;-66
2024/03/22 10:03:03;;;;;;;0.95;0.93;;;;;;;;;;5012928;28;20260;-67
2024/03/22 10:05:29;;;;;;;1.02;0.82;;;;;;;;;;5004650;28;20148;-66
2024/03/22 10:07:54;;;;;;;1.30;1.20;;;;;;;;;;4994042;28;20105;-66
2024/03/22 10:10:25;;;;;;;1.50;1.40;;;;;;;;;;5006178;28;20451;-66
2024/03/22 10:12:52;;;;;;;1.85;1.45;;;;;;;;;;5013090;28;20017;-67
2024/03/22 10:15:18;;;;;;;1.70;1.48;;;;;;;;;;5012312;28;20038;-67
2024/03/22 10:17:43;;;;;;;1.42;1.23;;;;;;;;;;5013098;28;20446;-67
2024/03/22 10:20:14;;;;;;;1.03;0.57;;;;;;;;;;5011927;28;20022;-67
2024/03/22 10:22:43;;;;;;;1.83;1.08;;;;;;;;;;5012350;28;20033;-67
2024/03/22 10:25:09;;;;;;;1.55;0.88;;;;;;;;;;5012985;28;20109;-67
2024/03/22 10:27:37;;;;;;;1.33;1.23;;;;;;;;;;5011806;28;20112;-67
2024/03/22 10:30:04;;;;;;;0.90;0.90;;;;;;;;;;5005922;28;20092;-67
2024/03/22 10:32:29;;;;;;;0.80;0.80;;;;;;;;;;5007860;28;20106;-67
2024/03/22 10:34:55;;;;;;;0.97;0.73;;;;;;;;;;5002293;28;20480;-67
2024/03/22 10:37:20;;;;;;;2.17;1.17;;;;;;;;;;5009972;28;20019;-67
2024/03/22 10:39:45;;;;;;;1.25;1.10;;;;;;;;;;5006555;28;20049;-67
2024/03/22 10:42:12;;;;;;;2.83;1.50;;;;;;;;;;5011748;28;20429;-67
2024/03/22 10:44:37;;;;;;;1.30;1.20;;;;;;;;;;4994003;28;20101;-67
2024/03/22 10:47:04;;;;;;;2.22;1.50;;;;;;;;;;5008643;28;20443;-66
2024/03/22 10:49:30;;;;;;;2.47;1.35;;;;;;;;;;4994230;28;20081;-67
2024/03/22 10:51:58;;;;;;;0.60;0.60;;;;;;;;;;4994058;28;20378;-66
2024/03/22 10:54:25;;;;;;;1.40;1.30;;;;;;;;;;4997742;28;20073;-66
2024/03/22 10:56:51;;;;;;;1.38;1.17;;;;;;;;;;4997709;28;20021;-67
2024/03/22 10:59:19;;;;;;;0.77;0.70;;;;;;;;;;4997882;28;20023;-67
2024/03/22 11:01:45;;;;;;;2.25;0.95;;;;;;;;;;4997623;28;20165;-67
2024/03/22 11:04:10;;;;;;;1.25;0.77;;;;;;;;;;5012268;28;20113;-67
2024/03/22 11:06:36;;;;;;;2.40;1.43;;;;;;;;;;5017151;28;20029;-67
2024/03/22 11:09:04;;;;;;;2.08;1.40;;;;;;;;;;5017781;28;20042;-67
2024/03/22 11:11:31;;;;;;;2.38;1.08;;;;;;;;;;5017232;28;20026;-67
2024/03/22 11:13:56;;;;;;;1.55;1.23;;;;;;;;;;5017185;28;20458;-67
2024/03/22 11:16:21;;;;;;;1.27;1.17;;;;;;;;;;5016902;28;20018;-67
2024/03/22 11:18:48;;;;;;;3.85;1.40;;;;;;;;;;5002889;28;20263;-67
2024/03/22 11:21:13;;;;;;;1.48;1.38;;;;;;;;;;4997166;28;20097;-67
2024/03/22 11:23:38;;;;;;;1.23;1.00;;;;;;;;;;4997233;28;20061;-66
2024/03/22 11:26:03;;;;;;;1.93;1.20;;;;;;;;;;4997116;28;20044;-67
2024/03/22 11:28:29;;;;;;;1.83;1.60;;;;;;;;;;4997239;28;20363;-67
2024/03/22 11:30:54;;;;;;;1.00;0.90;;;;;;;;;;4996906;28;20018;-67
2024/03/22 11:33:20;;;;;;;2.03;1.70;;;;;;;;;;4997912;28;20072;-67
2024/03/22 11:35:45;;;;;;;5.23;1.57;;;;;;;;;;4996902;28;20014;-67
2024/03/22 11:38:10;;;;;;;1.98;1.10;;;;;;;;;;4996791;28;20385;-67
2024/03/22 11:40:35;;;;;;;1.37;1.13;;;;;;;;;;4996885;28;20062;-66
2024/03/22 11:43:01;;;;;;;2.65;1.67;;;;;;;;;;5003932;28;20084;-66
2024/03/22 11:45:27;;;;;;;0.75;0.73;;;;;;;;;;5006737;28;20026;-65
2024/03/22 11:47:53;;;;;;;1.25;1.15;;;;;;;;;;5008480;28;20425;-66
2024/03/22 11:50:18;;;;;;;2.50;2.15;;;;;;;;;;5015935;28;20115;-66
2024/03/22 11:52:47;;;;;;;1.77;1.55;;;;;;;;;;5005286;28;20030;-66
2024/03/22 11:55:12;;;;;;;0.90;0.90;;;;;;;;;;4996492;28;20022;-66
2024/03/22 11:57:37;;;;;;;2.58;1.50;;;;;;;;;;4996410;28;20034;-66
2024/03/22 12:00:04;;;;;;;2.00;1.73;;;;;;;;;;4997464;28;20023;-66
2024/03/22 12:02:31;;;;;;;1.83;1.67;;;;;;;;;;5004706;28;20030;-66
2024/03/22 12:04:56;;;;;;;1.65;1.50;;;;;;;;;;4995392;28;20402;-67
2024/03/22 12:07:23;;;;;;;1.83;1.50;;;;;;;;;;4988560;28;20036;-67
2024/03/22 12:09:48;;;;;;;2.72;2.10;;;;;;;;;;4998761;28;20759;-67
2024/03/22 12:12:13;;;;;;;3.17;2.17;;;;;;;;;;4994727;28;20034;-67
2024/03/22 12:14:39;;;;;;;2.07;1.63;;;;;;;;;;4995337;28;20019;-67
2024/03/22 12:17:05;;;;;;;1.85;1.75;;;;;;;;;;4995162;28;20260;-66
2024/03/22 12:19:30;;;;;;;3.17;2.03;;;;;;;;;;4995196;28;20022;-67
2024/03/22 12:21:55;;;;;;;2.25;1.75;;;;;;;;;;4994378;28;20030;-67
2024/03/22 12:24:21;;;;;;;3.30;2.43;;;;;;;;;;4995310;28;20525;-67
2024/03/22 12:26:46;;;;;;;2.97;2.28;;;;;;;;;;4995306;28;20791;-67
2024/03/22 12:29:18;;;;;;;5.63;2.30;;;;;;;;;;4995175;28;20034;-67
2024/03/22 12:31:43;;;;;;;2.67;2.10;;;;;;;;;;4995779;28;20030;-67
2024/03/22 12:34:09;;;;;;;4.68;2.85;;;;;;;;;;5009550;28;20474;-67
2024/03/22 12:36:34;;;;;;;2.65;2.15;;;;;;;;;;4994453;28;20058;-66
2024/03/22 12:38:59;;;;;;;2.40;2.07;;;;;;;;;;4995067;28;20018;-67
2024/03/22 12:41:25;;;;;;;3.80;1.87;;;;;;;;;;4994832;28;20260;-67
2024/03/22 12:43:50;;;;;;;1.63;1.50;;;;;;;;;;4994539;28;20042;-67
2024/03/22 12:46:15;;;;;;;2.78;2.13;;;;;;;;;;4994794;28;20030;-67
2024/03/22 12:48:41;;;;;;;3.72;2.50;;;;;;;;;;4995059;28;20026;-67
2024/03/22 12:51:06;;;;;;;2.30;2.10;;;;;;;;;;4994483;28;20605;-67
2024/03/22 12:53:31;;;;;;;5.05;2.22;;;;;;;;;;4994286;28;20671;-67
2024/03/22 12:55:57;;;;;;;2.20;1.73;;;;;;;;;;5003141;28;20034;-66
2024/03/22 12:58:22;;;;;;;4.33;2.17;;;;;;;;;;4994541;28;20391;-67
2024/03/22 13:00:47;;;;;;;2.63;1.40;;;;;;;;;;4994937;28;20026;-67
2024/03/22 13:03:13;;;;;;;8.30;2.83;;;;;;;;;;4994546;28;20022;-67
2024/03/22 13:05:38;;;;;;;1.05;0.98;;;;;;;;;;4994262;28;20386;-67
2024/03/22 13:08:03;;;;;;;2.07;1.80;;;;;;;;;;4994201;28;20022;-67
2024/03/22 13:10:28;;;;;;;4.10;1.83;;;;;;;;;;4994195;28;20640;-67
2024/03/22 13:12:54;;;;;;;2.57;1.73;;;;;;;;;;4993773;28;20015;-67
2024/03/22 13:15:19;;;;;;;5.37;2.83;;;;;;;;;;4993794;28;20033;-67
2024/03/22 13:17:44;;;;;;;2.58;1.90;;;;;;;;;;4994504;28;20267;-67
2024/03/22 13:20:10;;;;;;;4.73;2.50;;;;;;;;;;5014216;28;20481;-67
2024/03/22 13:22:38;;;;;;;3.40;2.72;;;;;;;;;;5003461;28;20109;-67
2024/03/22 13:25:06;;;;;;;1.30;1.20;;;;;;;;;;5014031;28;20022;-67
2024/03/22 13:27:32;;;;;;;2.28;1.80;;;;;;;;;;5013976;28;20213;-67
2024/03/22 13:29:57;;;;;;;2.67;1.67;;;;;;;;;;5014041;28;20112;-67
2024/03/22 13:32:22;;;;;;;3.90;2.50;;;;;;;;;;5013730;28;20030;-67
2024/03/22 13:34:48;;;;;;;2.87;2.17;;;;;;;;;;5000780;28;20025;-67
2024/03/22 13:37:13;;;;;;;5.20;1.90;;;;;;;;;;4993812;28;20026;-67
2024/03/22 13:39:38;;;;;;;2.57;1.97;;;;;;;;;;4994046;28;20496;-67
2024/03/22 13:42:03;;;;;;;2.03;1.83;;;;;;;;;;4993778;28;20018;-66
2024/03/22 13:44:29;;;;;;;5.40;2.28;;;;;;;;;;4993419;28;20256;-67
2024/03/22 13:46:55;;;;;;;2.08;1.73;;;;;;;;;;4992971;28;20022;-67
2024/03/22 13:49:23;;;;;;;1.85;1.73;;;;;;;;;;4993929;28;20022;-67
2024/03/22 13:51:48;;;;;;;2.72;2.33;;;;;;;;;;4993086;28;20030;-66
2024/03/22 13:54:13;;;;;;;1.33;1.23;;;;;;;;;;4993557;28;20038;-67
2024/03/22 13:56:39;;;;;;;2.78;2.55;;;;;;;;;;4993835;28;20045;-66
2024/03/22 13:59:10;;;;;;;2.00;1.67;;;;;;;;;;4993442;28;20045;-67
2024/03/22 14:01:36;;;;;;;2.40;2.20;;;;;;;;;;4993933;28;20121;-67
2024/03/22 14:04:01;;;;;;;2.17;1.98;;;;;;;;;;4993362;28;20200;-67
2024/03/22 14:06:27;;;;;;;1.90;1.77;;;;;;;;;;4992952;28;20073;-67
2024/03/22 14:08:54;;;;;;;3.58;2.28;;;;;;;;;;4994201;28;20105;-67
2024/03/22 14:11:20;;;;;;;2.97;2.38;;;;;;;;;;4993135;28;20474;-67
2024/03/22 14:13:45;;;;;;;1.73;1.58;;;;;;;;;;4993316;28;20025;-67
2024/03/22 14:16:11;;;;;;;6.47;3.20;;;;;;;;;;4993584;28;20022;-67
2024/03/22 14:18:36;;;;;;;3.35;2.72;;;;;;;;;;4993367;28;20034;-67
2024/03/22 14:21:02;;;;;;;3.28;2.15;;;;;;;;;;5006083;28;20072;-67
2024/03/22 14:23:29;;;;;;;2.95;2.38;;;;;;;;;;4994337;28;20026;-67
2024/03/22 14:25:54;;;;;;;2.17;2.00;;;;;;;;;;4993706;28;20030;-67
2024/03/22 14:28:19;;;;;;;2.95;2.42;;;;;;;;;;4992997;28;20382;-67
2024/03/22 14:30:44;;;;;;;2.10;1.90;;;;;;;;;;4993466;28;20021;-67
2024/03/22 14:33:10;;;;;;;3.93;2.37;;;;;;;;;;4993376;28;20069;-67